Big Bear Station Historical Data
Daily Summary for April 1, 2019 Units:  English    Metric   Both
Next Day »
Daily Weekly Monthly Yearly Custom
  High: Low: Average:
Temperature: 61.2 °F 28.6 °F 43.7 °F
Dew Point: 34.4 °F 25.3 °F 28.9 °F
Humidity: 92% 28% 61%
Wind Speed: 6.3mph 0.0mph 1.4mph
Wind Gust: -999.0mph - -
Wind- - West
Pressure: 23.56 in 23.45 in -
Precipitation: 0.00 in    
Historical Graphs
 
 
Tabular Data for April 1, 2019
Time Temperature Dew Point Pressure Wind Wind Speed Wind Gust Humidity Rainfall Rate (Hourly)
00:08 32.0 °F 25.9 °F 23.56 in Calm   -999.0 mph 78% 0.00 in
00:23 31.8 °F 26.0 °F 23.56 in Calm   -999.0 mph 79% 0.00 in
00:38 31.3 °F 25.8 °F 23.55 in Calm   -999.0 mph 80% 0.00 in
00:54 30.9 °F 26.1 °F 23.55 in Calm   -999.0 mph 82% 0.00 in
01:09 30.7 °F 25.9 °F 23.55 in Calm   -999.0 mph 82% 0.00 in
01:25 30.4 °F 26.1 °F 23.55 in Calm   -999.0 mph 84% 0.00 in
01:40 30.2 °F 26.2 °F 23.54 in Calm   -999.0 mph 85% 0.00 in
01:55 29.8 °F 26.1 °F 23.54 in Calm   -999.0 mph 86% 0.00 in
02:11 30.0 °F 26.0 °F 23.54 in Calm   -999.0 mph 85% 0.00 in
02:26 29.7 °F 25.7 °F 23.54 in Calm   -999.0 mph 85% 0.00 in
02:41 29.8 °F 26.1 °F 23.54 in Calm   -999.0 mph 86% 0.00 in
02:56 29.3 °F 25.9 °F 23.53 in Calm   -999.0 mph 87% 0.00 in
03:12 29.7 °F 26.6 °F 23.53 in Calm   -999.0 mph 88% 0.00 in
03:27 29.3 °F 26.2 °F 23.53 in Calm   -999.0 mph 88% 0.00 in
03:43 29.3 °F 26.2 °F 23.52 in Calm   -999.0 mph 88% 0.00 in
03:58 29.5 °F 26.7 °F 23.52 in Calm   -999.0 mph 89% 0.00 in
04:13 29.5 °F 26.9 °F 23.52 in Calm   -999.0 mph 90% 0.00 in
04:28 29.1 °F 26.5 °F 23.52 in Calm   -999.0 mph 90% 0.00 in
04:43 29.1 °F 26.5 °F 23.52 in Calm   -999.0 mph 90% 0.00 in
04:59 28.8 °F 26.2 °F 23.52 in Calm   -999.0 mph 90% 0.00 in
05:14 28.9 °F 26.3 °F 23.52 in Calm   -999.0 mph 90% 0.00 in
05:29 28.6 °F 26.0 °F 23.53 in Calm   -999.0 mph 90% 0.00 in
05:44 28.6 °F 26.3 °F 23.52 in Calm   -999.0 mph 91% 0.00 in
05:59 28.8 °F 26.5 °F 23.53 in Calm   -999.0 mph 91% 0.00 in
06:15 28.8 °F 26.8 °F 23.53 in Calm   -999.0 mph 92% 0.00 in
06:30 28.8 °F 26.8 °F 23.53 in Calm   -999.0 mph 92% 0.00 in
06:45 28.8 °F 26.8 °F 23.53 in Calm   -999.0 mph 92% 0.00 in
07:00 29.7 °F 27.1 °F 23.53 in Calm   -999.0 mph 90% 0.00 in
07:16 29.8 °F 27.2 °F 23.53 in Calm   -999.0 mph 90% 0.00 in
07:31 30.2 °F 27.4 °F 23.53 in Calm   -999.0 mph 89% 0.00 in
07:46 31.3 °F 28.7 °F 23.53 in Calm   -999.0 mph 90% 0.00 in
08:01 32.4 °F 29.8 °F 23.52 in Calm   -999.0 mph 90% 0.00 in
08:16 34.3 °F 31.4 °F 23.53 in Calm   -999.0 mph 89% 0.00 in
08:32 36.5 °F 32.7 °F 23.53 in Calm   -999.0 mph 86% 0.00 in
08:47 39.4 °F 34.4 °F 23.53 in Calm   -999.0 mph 82% 0.00 in
09:02 41.7 °F 34.0 °F 23.53 in Calm   -999.0 mph 74% 0.00 in
09:17 43.3 °F 33.1 °F 23.52 in Calm   -999.0 mph 67% 0.00 in
09:32 45.0 °F 31.1 °F 23.53 in Calm   -999.0 mph 58% 0.00 in
09:48 46.6 °F 31.3 °F 23.53 in Calm   -999.0 mph 55% 0.00 in
10:03 48.9 °F 26.2 °F 23.53 in Calm   -999.0 mph 41% 0.00 in
10:18 51.1 °F 26.4 °F 23.53 in East 2.7 mph -999.0 mph 38% 0.00 in
10:33 52.5 °F 25.6 °F 23.53 in NNW 2.2 mph -999.0 mph 35% 0.00 in
10:48 52.7 °F 27.8 °F 23.53 in NW 3.2 mph -999.0 mph 38% 0.00 in
11:04 53.8 °F 26.8 °F 23.53 in WNW 3.7 mph -999.0 mph 35% 0.00 in
11:19 54.9 °F 28.4 °F 23.52 in NW 3.7 mph -999.0 mph 36% 0.00 in
11:34 56.3 °F 31.0 °F 23.52 in NW 4.7 mph -999.0 mph 38% 0.00 in
11:50 57.0 °F 29.6 °F 23.52 in NNE 3.7 mph -999.0 mph 35% 0.00 in
12:05 58.6 °F 31.7 °F 23.51 in NW 4.7 mph -999.0 mph 36% 0.00 in
12:20 57.4 °F 30.0 °F 23.51 in North 5.3 mph -999.0 mph 35% 0.00 in
12:35 58.5 °F 32.3 °F 23.51 in NNW 4.7 mph -999.0 mph 37% 0.00 in
12:51 57.6 °F 30.8 °F 23.50 in NW 4.2 mph -999.0 mph 36% 0.00 in
13:06 58.6 °F 31.0 °F 23.50 in NW 4.2 mph -999.0 mph 35% 0.00 in
13:21 58.3 °F 30.0 °F 23.50 in NNW 4.2 mph -999.0 mph 34% 0.00 in
13:36 58.8 °F 29.0 °F 23.50 in NNW 4.2 mph -999.0 mph 32% 0.00 in
13:52 58.3 °F 25.3 °F 23.49 in NNE 4.2 mph -999.0 mph 28% 0.00 in
14:07 59.2 °F 26.9 °F 23.49 in NNW 4.7 mph -999.0 mph 29% 0.00 in
14:22 61.0 °F 27.6 °F 23.49 in West 3.2 mph -999.0 mph 28% 0.00 in
14:38 61.2 °F 27.8 °F 23.48 in South 2.2 mph -999.0 mph 28% 0.00 in
14:53 60.1 °F 29.4 °F 23.48 in WSW 2.2 mph -999.0 mph 31% 0.00 in
15:08 59.9 °F 30.0 °F 23.48 in NW 4.7 mph -999.0 mph 32% 0.00 in
15:23 59.4 °F 28.7 °F 23.48 in NNW 3.2 mph -999.0 mph 31% 0.00 in
15:38 59.7 °F 30.5 °F 23.47 in North 3.7 mph -999.0 mph 33% 0.00 in
15:54 59.0 °F 28.4 °F 23.47 in North 1.7 mph -999.0 mph 31% 0.00 in
16:09 59.0 °F 28.4 °F 23.47 in NNW 5.8 mph -999.0 mph 31% 0.00 in
16:24 58.5 °F 28.0 °F 23.46 in South 4.2 mph -999.0 mph 31% 0.00 in
16:40 58.3 °F 28.6 °F 23.46 in NW 4.7 mph -999.0 mph 32% 0.00 in
16:55 58.8 °F 28.2 °F 23.46 in WNW 6.3 mph -999.0 mph 31% 0.00 in
17:10 60.3 °F 30.3 °F 23.46 in NW 4.7 mph -999.0 mph 32% 0.00 in
17:25 58.6 °F 28.8 °F 23.46 in Calm   -999.0 mph 32% 0.00 in
17:40 57.2 °F 29.1 °F 23.46 in NNW 2.7 mph -999.0 mph 34% 0.00 in
17:56 54.1 °F 29.0 °F 23.46 in NW 3.7 mph -999.0 mph 38% 0.00 in
18:11 53.2 °F 28.2 °F 23.46 in South 6.3 mph -999.0 mph 38% 0.00 in
18:26 52.2 °F 29.2 °F 23.46 in SSW 2.7 mph -999.0 mph 41% 0.00 in
18:41 50.7 °F 31.2 °F 23.45 in Calm   -999.0 mph 47% 0.00 in
18:56 48.9 °F 31.6 °F 23.45 in Calm   -999.0 mph 51% 0.00 in
19:12 48.0 °F 31.7 °F 23.46 in Calm   -999.0 mph 53% 0.00 in
19:27 46.9 °F 31.6 °F 23.46 in Calm   -999.0 mph 55% 0.00 in
19:42 45.9 °F 31.5 °F 23.46 in Calm   -999.0 mph 57% 0.00 in
19:57 44.8 °F 31.3 °F 23.46 in Calm   -999.0 mph 59% 0.00 in
20:12 43.9 °F 31.3 °F 23.46 in Calm   -999.0 mph 61% 0.00 in
20:28 43.0 °F 31.7 °F 23.46 in Calm   -999.0 mph 64% 0.00 in
20:43 42.1 °F 32.3 °F 23.46 in Calm   -999.0 mph 68% 0.00 in
20:58 42.1 °F 31.6 °F 23.46 in Calm   -999.0 mph 66% 0.00 in
21:13 42.1 °F 31.2 °F 23.47 in Calm   -999.0 mph 65% 0.00 in
21:29 42.1 °F 30.4 °F 23.47 in Calm   -999.0 mph 63% 0.00 in
21:44 42.1 °F 30.8 °F 23.47 in Calm   -999.0 mph 64% 0.00 in
21:59 41.7 °F 30.4 °F 23.47 in Calm   -999.0 mph 64% 0.00 in
22:14 41.9 °F 31.0 °F 23.46 in Calm   -999.0 mph 65% 0.00 in
22:29 42.3 °F 31.4 °F 23.46 in Calm   -999.0 mph 65% 0.00 in
22:45 41.9 °F 31.7 °F 23.46 in Calm   -999.0 mph 67% 0.00 in
23:00 42.1 °F 31.2 °F 23.46 in Calm   -999.0 mph 65% 0.00 in
23:15 41.9 °F 30.6 °F 23.46 in Calm   -999.0 mph 64% 0.00 in
23:30 42.6 °F 30.9 °F 23.46 in Calm   -999.0 mph 63% 0.00 in
23:45 43.3 °F 30.3 °F 23.45 in WSW 2.2 mph -999.0 mph 60% 0.00 in
Big Bear CA Weather